• Join FlightAware (Why Join?)
  • Login
  • US Flag 
03:03AM EDT


 

Airport Tracker/Info


-or-


 

Live Flight TrackerFlight Track Log ✈ SWA2058 ✈ 06-Apr-2013 ✈ KHOU - KMCO

Flight Track Log - Related Links

Times and Time Zones

All times are in EDT time to prevent confusion due to time zone crossing. See the SWA2058 flight status page for this flight to view local times or setup timezone preferences in your user account.

Time Position Orientation Groundspeed Altitude Reporting Facility
EDT Latitude Longitude Course Direction KTS MPH feet Rate Location/Type
04:05PM 29.6375 -95.2889 169° South 142 163 800  Level Houston Center
04:06PM 29.6097 -95.2825 169° South 187 215 2,400 2,640 Climbing Houston Center
04:06PM 29.5872 -95.2647 146° Southeast 195 224 4,200 2,940 Climbing Houston Center
04:07PM 29.5369 -95.2181 141° Southeast 246 283 7,100 3,180 Climbing Houston Center
04:08PM 29.5339 -95.1328 92° East 301 346 10,800 3,720 Climbing Houston Center
04:09PM 29.5656 -95.0097 73° East 341 392 14,800 3,660 Climbing Houston Center
04:10PM 29.5894 -94.8958 76° East 366 421 18,400 3,000 Climbing Houston Center
04:11PM 29.6025 -94.7714 83° East 392 451 21,100 2,820 Climbing Houston Center
04:12PM 29.6186 -94.6378 82° East 414 476 24,300 2,760 Climbing Houston Center
04:13PM 29.6125 -94.4981 93° East 436 502 26,900 2,340 Climbing Houston Center
04:14PM 29.5961 -94.3550 97° East 451 519 29,200 2,220 Climbing Houston Center
04:15PM 29.5778 -94.1750 97° East 470 541 31,500 1,860 Climbing Houston Center
04:16PM 29.5608 -94.0172 97° East 489 563 33,100 1,800 Climbing Houston Center
04:18PM 29.5436 -93.8589 97° East 500 575 35,300 1,860 Climbing Houston Center
04:19PM 29.5267 -93.7056 97° East 494 568 37,000 1,680 Climbing Houston Center
04:20PM 29.5100 -93.5503 97° East 492 566 38,800 1,620 Climbing Houston Center
04:21PM 29.4883 -93.3647 98° East 492 566 40,400 960 Climbing Houston Center
04:22PM 29.4711 -93.2086 97° East 494 568 40,900 240 Climbing Houston Center
04:23PM 29.4531 -93.0497 97° East 501 577 41,000  Climbing Houston Center
04:24PM 29.4344 -92.8900 98° East 507 583 41,000  Level Houston Center
04:25PM 29.4169 -92.7306 97° East 507 583 41,000  Level Houston Center
04:26PM 29.3986 -92.5717 98° East 505 581 41,000  Level Houston Center
04:27PM 29.3764 -92.3817 98° East 503 579 41,000  Level Houston Center
04:28PM 29.3556 -92.2239 99° East 502 578 41,000  Level Houston Center
04:29PM 29.3375 -92.0653 97° East 504 580 41,000  Level Houston Center
04:30PM 29.3172 -91.9050 98° East 508 585 41,000  Level Houston Center
04:31PM 29.2983 -91.7436 98° East 512 589 41,000  Level Houston Center
04:32PM 29.2756 -91.5656 98° East 513 590 41,000  Level Houston Center
04:33PM 29.2547 -91.4033 98° East 515 593 41,000  Level Houston Center
04:34PM 29.2344 -91.2406 98° East 518 596 41,000  Level Houston Center
04:35PM 29.2089 -91.0475 99° East 515 593 41,000  Level Houston Center
04:36PM 29.1892 -90.8856 98° East 515 593 41,000  Level Houston Center
04:37PM 29.1669 -90.7269 99° East 508 585 41,000  Level Houston Center
04:38PM 29.1458 -90.5669 99° East 510 587 41,000  Level Houston Center
04:39PM 29.1242 -90.4064 99° East 512 589 41,000  Level Houston Center
04:40PM 29.0978 -90.2189 99° East 501 577 41,000  Level Houston Center
04:41PM 29.0769 -90.0614 99° East 503 579 41,000  Level Houston Center
04:42PM 29.0556 -89.9064 99° East 499 574 41,000  Level Houston Center
04:43PM 29.0331 -89.7519 99° East 496 571 41,000  Level Houston Center
04:44PM 29.0033 -89.5989 102° East 496 571 41,000  Level Houston Center
04:45PM 28.9722 -89.4436 103° East 503 579 41,000  Level Houston Center
04:47PM 28.9350 -89.2594 103° East 499 574 41,000  Level Houston Center
04:48PM 28.9044 -89.1072 103° East 496 571 41,000  Level Houston Center
04:49PM 28.8728 -88.9542 103° East 497 572 41,000  Level Houston Center
04:50PM 28.8419 -88.7994 103° East 500 575 41,000  Level Houston Center
04:51PM 28.8106 -88.6458 103° East 499 574 41,000  Level Houston Center
04:52PM 28.7722 -88.4611 103° East 502 578 41,000  Level Houston Center
04:53PM 28.7392 -88.3072 104° East 501 577 41,000  Level Houston Center
04:54PM 28.7069 -88.1528 103° East 502 578 41,000  Level Houston Center
04:55PM 28.6711 -87.9828 103° East 503 579 41,000  Level Houston Center
04:56PM 28.6397 -87.8294 103° East 498 573 41,000  Level Houston Center
04:57PM 28.6061 -87.6753 104° East 503 579 41,000  Level Houston Center
04:57PM 28.5911 -87.6158 106° East 490 564 41,000  Level Jacksonville Center
04:58PM 28.5592 -87.4608 103° East 490 564 41,000  Level Jacksonville Center
04:59PM 28.5289 -87.3131 103° East 495 570 41,000  Level Jacksonville Center
05:00PM 28.4964 -87.1628 104° East 495 570 41,000  Level Jacksonville Center
05:01PM 28.4597 -87.0078 105° East 501 577 41,000  Level Jacksonville Center
05:02PM 28.4269 -86.8556 104° East 493 567 41,000  Level Jacksonville Center
05:03PM 28.3939 -86.7056 104° East 493 567 41,000  Level Jacksonville Center
05:04PM 28.3606 -86.5556 104° East 493 567 41,000  Level Jacksonville Center
05:05PM 28.3253 -86.4011 105° East 498 573 41,000  Level Jacksonville Center
05:06PM 28.2897 -86.2467 105° East 498 573 41,000  Level Jacksonville Center
05:07PM 28.2542 -86.0925 105° East 493 567 41,000  Level Jacksonville Center
05:08PM 28.2200 -85.9478 105° East 498 573 41,000  Level Jacksonville Center
05:09PM 28.1839 -85.7936 105° East 498 573 41,000  Level Jacksonville Center
05:10PM 28.1497 -85.6394 104° East 499 574 41,000  Level Jacksonville Center
05:13PM 28.0644 -85.2692 105° East 495 570 41,000  Level Miami Center
05:14PM 28.0350 -85.1331 104° East 500 575 41,000  Level Miami Center
05:15PM 27.9958 -84.9800 106° East 500 575 41,000 -120 Level Miami Center
05:16PM 27.9583 -84.8294 106° East 492 566 40,800 -660 Descending Miami Center
05:17PM 27.9194 -84.6672 105° East 500 575 39,700 -1,020 Descending Miami Center
05:18PM 27.8858 -84.5147 104° East 500 575 38,800 -960 Descending Miami Center
05:19PM 27.8689 -84.3611 97° East 494 568 37,800 -960 Descending Miami Center
05:20PM 27.8750 -84.2067 87° East 494 568 36,900 -960 Descending Miami Center
05:21PM 27.8703 -84.0517 92° East 494 568 35,900 -1,380 Descending Miami Center
05:22PM 27.8653 -83.8964 92° East 494 568 34,200 -2,820 Descending Miami Center
05:23PM 27.8628 -83.7367 91° East 505 581 30,300 -3,960 Descending Miami Center
05:24PM 27.8578 -83.5769 92° East 505 581 26,400 -3,600 Descending Miami Center
05:25PM 27.8544 -83.4194 91° East 505 581 23,200 -1,740 Descending Miami Center
05:26PM 27.8483 -83.2808 93° East 478 550 23,000 -120 Descending Miami Center
05:27PM 27.8442 -83.1375 92° East 461 531 23,000  Level Miami Center
05:28PM 27.8397 -82.9986 92° East 450 518 23,000 -540 Level Miami Center
05:29PM 27.8394 -82.8578 90° East 450 518 22,000 -1,080 Descending Miami Center
05:30PM 27.8347 -82.7192 92° East 445 512 20,900 -1,080 Descending Miami Center
05:31PM 27.8278 -82.5850 93° East 445 512 19,900 -1,020 Descending Miami Center
05:32PM 27.8475 -82.4547 80° East 422 486 18,900 -1,020 Descending Miami Center
05:33PM 27.8853 -82.3344 70° East 422 486 17,900 -960 Descending Miami Center
05:34PM 27.9233 -82.2142 70° East 404 465 17,000 -960 Descending Miami Center
05:35PM 27.9589 -82.0961 71° East 399 459 16,000 -1,440 Descending Miami Center
05:36PM 28.0333 -81.9000 67° East 337 388 13,000 -1,320 Descending Orlando TRACON
05:38PM 28.0833 -81.8000 60° Northeast 305 351 12,100 -1,200 Descending Orlando TRACON
05:38PM 28.1000 -81.7167 77° East 304 350 10,700 -1,860 Descending Orlando TRACON
05:39PM 28.1167 -81.6333 77° East 294 338 8,800 -1,860 Descending Orlando TRACON
05:40PM 28.1333 -81.5500 77° East 275 316 7,000 -1,020 Descending Orlando TRACON
05:42PM 28.1500 -81.4667 77° East 222 255 6,600 -720 Descending Orlando TRACON
05:43PM 28.1667 -81.3833 77° East 229 264 5,500 -1,020 Descending Orlando TRACON
05:44PM 28.2333 -81.3500 24° Northeast 219 252 4,600 -960 Descending Orlando TRACON
05:45PM 28.2667 -81.3333 24° Northeast 215 247 3,700 -1,560 Descending Orlando TRACON
05:46PM 28.3167 -81.3000 30° Northeast 201 231 1,700 -1,440 Descending Orlando TRACON
05:47PM 28.3667 -81.3000 360° North 136 157 800 -780 Descending Orlando TRACON
05:48PM 28.4000 -81.3000 360° North 128 147 200 -600 Descending Orlando TRACON
05:50PM 28.4294 -81.3090 345° North  Level Estimated